createdAt,value
2023-03-29T00:00:49.619Z,97428.25
2023-03-29T00:03:17.057Z,97429.03
2023-03-29T00:05:44.766Z,97433.38
2023-03-29T00:08:14.381Z,97432.09
2023-03-29T00:10:41.793Z,97430.34
2023-03-29T00:13:08.367Z,97427.47
2023-03-29T00:15:34.710Z,97423.84
2023-03-29T00:18:01.206Z,97430.31
2023-03-29T00:20:28.732Z,97429.03
2023-03-29T00:22:55.686Z,97427.97
2023-03-29T00:25:22.217Z,97426.97
2023-03-29T00:27:48.784Z,97421.06
2023-03-29T00:30:15.864Z,97408.97
2023-03-29T00:32:42.749Z,97407.16
2023-03-29T00:35:09.788Z,97418.22
2023-03-29T00:37:36.828Z,97412.31
2023-03-29T00:40:10.972Z,97397.63
2023-03-29T00:42:37.567Z,97406.41
2023-03-29T00:45:25.508Z,97399.47
2023-03-29T00:48:00.984Z,97389.94
2023-03-29T00:50:41.783Z,97401.78
2023-03-29T00:53:27.254Z,97402.78
2023-03-29T00:55:59.528Z,97390.69
2023-03-29T00:58:36.729Z,97392.78
2023-03-29T01:01:10.846Z,97387.38
2023-03-29T01:03:46.600Z,97377.88
2023-03-29T01:06:16.004Z,97373.28
2023-03-29T01:08:50.962Z,97364.00
2023-03-29T01:11:22.379Z,97366.06
2023-03-29T01:13:57.960Z,97361.19
2023-03-29T01:16:26.470Z,97362.22
2023-03-29T01:18:52.890Z,97352.72
2023-03-29T01:21:25.007Z,97360.16
2023-03-29T01:24:28.333Z,97354.00
2023-03-29T01:27:10.698Z,97343.97
2023-03-29T01:29:40.645Z,97336.50
2023-03-29T01:32:16.298Z,97323.16
2023-03-29T01:35:24.133Z,97336.25
2023-03-29T01:38:01.265Z,97333.97
2023-03-29T01:40:28.244Z,97333.44
2023-03-29T01:43:06.131Z,97333.94
2023-03-29T01:45:47.446Z,97327.25
2023-03-29T01:48:28.228Z,97318.50
2023-03-29T01:51:01.412Z,97332.91
2023-03-29T01:53:45.307Z,97325.72
2023-03-29T01:56:17.265Z,97312.59
2023-03-29T01:58:51.143Z,97309.53
2023-03-29T02:01:25.822Z,97306.94
2023-03-29T02:03:55.802Z,97309.03
2023-03-29T02:06:27.213Z,97315.19
2023-03-29T02:08:55.724Z,97307.75
2023-03-29T02:11:24.439Z,97301.59
2023-03-29T02:13:50.975Z,97301.59
2023-03-29T02:16:17.599Z,97297.97
2023-03-29T02:18:47.761Z,97286.91
2023-03-29T02:21:30.419Z,97285.66
2023-03-29T02:24:02.046Z,97284.59
2023-03-29T02:26:29.161Z,97292.31
2023-03-29T02:28:56.029Z,97288.47
2023-03-29T02:31:37.918Z,97291.31
2023-03-29T02:34:13.228Z,97277.44
2023-03-29T02:36:47.059Z,97281.28
2023-03-29T02:39:15.704Z,97281.00
2023-03-29T02:41:48.476Z,97278.44
2023-03-29T02:44:20.368Z,97272.53
2023-03-29T02:46:50.699Z,97274.06
2023-03-29T02:49:17.128Z,97272.28
2023-03-29T02:51:47.472Z,97285.66
2023-03-29T02:54:19.396Z,97261.72
2023-03-29T02:56:49.183Z,97253.75
2023-03-29T02:59:19.351Z,97267.38
2023-03-29T03:01:45.972Z,97261.97
2023-03-29T03:04:13.072Z,97269.44
2023-03-29T03:06:39.586Z,97272.28
2023-03-29T03:09:06.692Z,97257.09
2023-03-29T03:11:33.975Z,97257.88
2023-03-29T03:14:00.875Z,97262.25
2023-03-29T03:16:27.929Z,97265.81
2023-03-29T03:18:55.492Z,97269.44
2023-03-29T03:21:22.240Z,97255.81
2023-03-29T03:23:49.283Z,97253.75
2023-03-29T03:26:17.788Z,97262.50
2023-03-29T03:28:45.572Z,97254.25
2023-03-29T03:31:15.129Z,97259.16
2023-03-29T03:33:41.764Z,97246.03
2023-03-29T03:36:10.158Z,97248.38
2023-03-29T03:38:38.387Z,97249.88
2023-03-29T03:41:06.946Z,97242.94
2023-03-29T03:43:34.169Z,97246.81
2023-03-29T03:46:01.298Z,97250.16
2023-03-29T03:48:28.413Z,97238.06
2023-03-29T03:50:58.108Z,97244.00
2023-03-29T03:53:27.133Z,97240.38
2023-03-29T03:55:58.014Z,97231.66
2023-03-29T03:58:24.477Z,97229.31
2023-03-29T04:00:51.366Z,97219.03
2023-03-29T04:03:18.601Z,97230.84
2023-03-29T04:05:46.682Z,97231.63
2023-03-29T04:08:14.779Z,97232.16
2023-03-29T04:10:41.524Z,97233.44
2023-03-29T04:13:08.305Z,97238.56
2023-03-29T04:15:41.108Z,97227.50
2023-03-29T04:18:07.737Z,97223.13
2023-03-29T04:20:34.647Z,97220.56
2023-03-29T04:23:01.706Z,97224.94
2023-03-29T04:25:28.394Z,97226.72
2023-03-29T04:27:54.898Z,97227.25
2023-03-29T04:30:21.767Z,97228.03
2023-03-29T04:32:48.167Z,97220.81
2023-03-29T04:35:14.644Z,97226.44
2023-03-29T04:37:41.712Z,97219.47
2023-03-29T04:40:09.962Z,97214.63
2023-03-29T04:42:37.634Z,97204.31
2023-03-29T04:45:07.221Z,97197.56
2023-03-29T04:47:36.257Z,97201.47
2023-03-29T04:50:03.888Z,97207.66
2023-03-29T04:52:33.025Z,97202.22
2023-03-29T04:55:04.445Z,97216.13
2023-03-29T04:57:31.424Z,97215.13
2023-03-29T04:59:57.845Z,97209.72
2023-03-29T05:02:24.352Z,97220.00
2023-03-29T05:04:51.120Z,97214.09
2023-03-29T05:07:18.188Z,97221.56
2023-03-29T05:09:45.674Z,97223.91
2023-03-29T05:12:12.072Z,97213.13
2023-03-29T05:14:38.403Z,97227.00
2023-03-29T05:17:05.102Z,97225.72
2023-03-29T05:19:31.951Z,97232.66
2023-03-29T05:21:59.053Z,97233.69
2023-03-29T05:24:25.408Z,97228.25
2023-03-29T05:26:51.978Z,97230.59
2023-03-29T05:29:18.562Z,97227.75
2023-03-29T05:31:44.933Z,97229.28
2023-03-29T05:34:11.682Z,97231.59
2023-03-29T05:36:39.076Z,97236.97
2023-03-29T05:39:06.381Z,97214.34
2023-03-29T05:41:33.617Z,97228.78
2023-03-29T05:43:59.971Z,97232.38
2023-03-29T05:46:26.924Z,97229.03
2023-03-29T05:48:53.282Z,97231.09
2023-03-29T05:51:24.044Z,97220.00
2023-03-29T05:53:51.687Z,97233.91
2023-03-29T05:56:18.925Z,97231.56
2023-03-29T05:58:49.267Z,97240.31
2023-03-29T06:01:18.014Z,97239.50
2023-03-29T06:03:46.211Z,97233.88
2023-03-29T06:06:16.040Z,97248.53
2023-03-29T06:08:42.584Z,97248.00
2023-03-29T06:11:11.026Z,97238.25
2023-03-29T06:13:38.800Z,97247.22
2023-03-29T06:16:06.231Z,97243.88
2023-03-29T06:18:33.446Z,97233.84
2023-03-29T06:21:02.036Z,97233.59
2023-03-29T06:23:29.313Z,97236.19
2023-03-29T06:25:56.468Z,97245.69
2023-03-29T06:28:23.960Z,97247.97
2023-03-29T06:30:50.635Z,97235.13
2023-03-29T06:33:17.232Z,97242.84
2023-03-29T06:35:46.012Z,97246.66
2023-03-29T06:38:12.495Z,97247.44
2023-03-29T06:40:38.994Z,97243.31
2023-03-29T06:43:06.588Z,97237.38
2023-03-29T06:45:36.283Z,97247.91
2023-03-29T06:48:04.246Z,97253.53
2023-03-29T06:50:31.191Z,97250.69
2023-03-29T06:52:57.632Z,97247.78
2023-03-29T06:55:25.894Z,97248.28
2023-03-29T06:57:53.865Z,97238.75
2023-03-29T07:00:29.829Z,97233.31
2023-03-29T07:02:58.612Z,97245.91
2023-03-29T07:05:28.167Z,97237.94
2023-03-29T07:07:57.046Z,97238.91
2023-03-29T07:10:32.177Z,97243.22
2023-03-29T07:13:00.648Z,97243.16
2023-03-29T07:15:28.706Z,97242.88
2023-03-29T07:17:55.926Z,97240.22
2023-03-29T07:20:23.328Z,97242.69
2023-03-29T07:22:53.704Z,97238.88
2023-03-29T07:25:22.353Z,97250.13
2023-03-29T07:27:49.212Z,97257.81
2023-03-29T07:30:18.339Z,97256.28
2023-03-29T07:32:46.365Z,97257.22
2023-03-29T07:35:14.899Z,97257.19
2023-03-29T07:37:42.653Z,97259.50
2023-03-29T07:40:12.787Z,97265.94
2023-03-29T07:42:39.573Z,97259.16
2023-03-29T07:45:08.425Z,97258.28
2023-03-29T07:47:35.211Z,97254.13
2023-03-29T07:50:02.420Z,97267.53
2023-03-29T07:52:30.005Z,97263.19
2023-03-29T07:54:56.922Z,97267.72
2023-03-29T07:57:25.112Z,97266.50
2023-03-29T07:59:53.996Z,97259.53
2023-03-29T08:02:21.068Z,97262.56
2023-03-29T08:04:47.726Z,97269.66
2023-03-29T08:07:17.616Z,97270.44
2023-03-29T08:09:45.463Z,97271.09
2023-03-29T08:12:12.114Z,97253.50
2023-03-29T08:14:38.520Z,97266.03
2023-03-29T08:17:04.982Z,97262.78
2023-03-29T08:19:31.542Z,97261.41
2023-03-29T08:21:58.752Z,97254.91
2023-03-29T08:24:25.297Z,97243.53
2023-03-29T08:26:51.707Z,97237.22
2023-03-29T08:29:18.037Z,97244.09
2023-03-29T08:31:44.430Z,97234.59
2023-03-29T08:34:10.901Z,97237.91
2023-03-29T08:36:37.341Z,97239.88
2023-03-29T08:39:03.770Z,97247.28
2023-03-29T08:41:58.167Z,97257.56
2023-03-29T08:44:50.736Z,97270.22
2023-03-29T08:47:17.157Z,97263.59
2023-03-29T08:49:48.568Z,97254.97
2023-03-29T08:52:31.124Z,97253.81
2023-03-29T08:54:59.743Z,97259.72
2023-03-29T08:57:31.586Z,97261.84
2023-03-29T09:00:01.884Z,97267.31
2023-03-29T09:02:34.314Z,97260.38
2023-03-29T09:05:14.857Z,97258.69
2023-03-29T09:07:42.016Z,97255.44
2023-03-29T09:10:15.240Z,97246.84
2023-03-29T09:12:55.503Z,97253.84
2023-03-29T09:15:27.613Z,97248.22
2023-03-29T09:18:11.561Z,97243.00
2023-03-29T09:20:56.997Z,97249.13
2023-03-29T09:23:45.201Z,97254.91
2023-03-29T09:26:19.737Z,97244.19
2023-03-29T09:29:15.314Z,97256.88
2023-03-29T09:31:44.149Z,97261.59
2023-03-29T09:34:15.888Z,97267.69
2023-03-29T09:36:52.356Z,97272.88
2023-03-29T09:39:21.169Z,97265.88
2023-03-29T09:41:54.592Z,97262.66
2023-03-29T09:44:31.118Z,97261.31
2023-03-29T09:47:12.430Z,97262.78
2023-03-29T09:49:44.122Z,97261.53
2023-03-29T09:52:14.044Z,97274.38
2023-03-29T09:54:41.109Z,97274.00
2023-03-29T09:57:12.047Z,97266.81
2023-03-29T09:59:38.423Z,97276.03
2023-03-29T10:02:11.042Z,97266.03
2023-03-29T10:04:38.558Z,97254.91
2023-03-29T10:07:07.687Z,97240.88
2023-03-29T10:09:34.995Z,97230.91
2023-03-29T10:12:06.595Z,97249.25
2023-03-29T10:14:54.187Z,97256.84
2023-03-29T10:17:25.722Z,97261.25
2023-03-29T10:19:56.970Z,97253.41
2023-03-29T10:22:26.384Z,97231.03
2023-03-29T10:24:54.841Z,97238.69
2023-03-29T10:27:27.233Z,97229.38
2023-03-29T10:29:55.279Z,97215.19
2023-03-29T10:32:21.550Z,97224.84
2023-03-29T10:34:49.234Z,97225.16
2023-03-29T10:37:19.385Z,97221.91
2023-03-29T10:39:48.098Z,97213.06
2023-03-29T10:42:23.663Z,97223.69
2023-03-29T10:44:58.400Z,97213.91
2023-03-29T10:47:25.929Z,97212.69
2023-03-29T10:49:58.601Z,97200.59
2023-03-29T10:52:25.740Z,97197.09
2023-03-29T10:54:55.729Z,97205.88
2023-03-29T10:58:01.614Z,97212.44
2023-03-29T11:00:33.880Z,97200.38
2023-03-29T11:03:09.723Z,97204.47
2023-03-29T11:05:51.542Z,97205.56
2023-03-29T11:08:36.573Z,97204.66
2023-03-29T11:11:44.655Z,97207.09
2023-03-29T11:14:46.102Z,97206.91
2023-03-29T11:17:37.302Z,97210.41
2023-03-29T11:20:12.886Z,97203.56
2023-03-29T11:23:27.466Z,97206.47
2023-03-29T11:26:19.796Z,97209.66
2023-03-29T11:28:54.337Z,97202.53
2023-03-29T11:31:46.387Z,97216.09
2023-03-29T11:34:18.684Z,97213.53
2023-03-29T11:37:11.028Z,97222.22
2023-03-29T11:39:49.887Z,97214.16
2023-03-29T11:42:24.732Z,97206.72
2023-03-29T11:44:55.042Z,97216.06
2023-03-29T11:47:26.509Z,97208.31
2023-03-29T11:49:57.345Z,97211.66
2023-03-29T11:52:30.464Z,97210.13
2023-03-29T11:55:05.448Z,97206.88
2023-03-29T11:57:39.871Z,97201.38
2023-03-29T12:00:30.544Z,97209.97
2023-03-29T12:02:56.896Z,97198.53
2023-03-29T12:05:32.056Z,97200.78
2023-03-29T12:08:21.967Z,97197.09
2023-03-29T12:10:56.086Z,97188.19
2023-03-29T12:13:37.828Z,97178.88
2023-03-29T12:16:13.538Z,97172.44
2023-03-29T12:18:45.319Z,97178.88
2023-03-29T12:21:20.039Z,97174.25
2023-03-29T12:23:47.713Z,97190.78
2023-03-29T12:26:33.679Z,97193.25
2023-03-29T12:29:05.365Z,97195.09
2023-03-29T12:31:39.506Z,97187.41
2023-03-29T12:34:24.541Z,97182.63
2023-03-29T12:36:53.858Z,97187.50
2023-03-29T12:39:21.504Z,97179.41
2023-03-29T12:41:53.391Z,97192.06
2023-03-29T12:44:23.857Z,97185.75
2023-03-29T12:46:59.475Z,97182.31
2023-03-29T12:49:35.434Z,97180.47
2023-03-29T12:52:05.514Z,97176.28
2023-03-29T12:54:32.969Z,97183.03
2023-03-29T12:57:19.693Z,97178.25
2023-03-29T12:59:48.522Z,97164.78
2023-03-29T13:02:14.936Z,97165.78
2023-03-29T13:04:53.931Z,97157.34
2023-03-29T13:07:23.310Z,97157.34
2023-03-29T13:10:17.620Z,97144.69
2023-03-29T13:12:45.904Z,97140.16
2023-03-29T13:15:15.580Z,97139.91
2023-03-29T13:17:46.587Z,97119.91
2023-03-29T13:20:37.397Z,97121.25
2023-03-29T13:23:17.763Z,97126.84
2023-03-29T13:25:53.578Z,97126.78
2023-03-29T13:28:33.677Z,97125.56
2023-03-29T13:31:18.153Z,97132.63
2023-03-29T13:34:02.894Z,97131.75
2023-03-29T13:36:51.081Z,97125.66
2023-03-29T13:39:29.354Z,97115.06
2023-03-29T13:42:37.295Z,97123.97
2023-03-29T13:45:22.224Z,97119.31
2023-03-29T13:48:02.417Z,97123.03
2023-03-29T13:50:39.510Z,97115.19
2023-03-29T13:53:45.633Z,97113.97
2023-03-29T13:56:18.801Z,97110.63
2023-03-29T13:58:49.881Z,97111.38
2023-03-29T14:01:25.831Z,97110.47
2023-03-29T14:03:53.522Z,97106.16
2023-03-29T14:06:36.528Z,97091.34
2023-03-29T14:09:08.677Z,97079.84
2023-03-29T14:11:36.428Z,97073.84
2023-03-29T14:14:08.212Z,97073.19
2023-03-29T14:16:37.259Z,97087.16
2023-03-29T14:19:11.678Z,97078.53
2023-03-29T14:21:38.049Z,97067.22
2023-03-29T14:24:04.481Z,97065.25
2023-03-29T14:26:35.815Z,97068.84
2023-03-29T14:29:02.791Z,97070.41
2023-03-29T14:31:36.074Z,97068.56
2023-03-29T14:34:05.907Z,97055.03
2023-03-29T14:36:33.574Z,97062.13
2023-03-29T14:39:04.104Z,97057.31
2023-03-29T14:41:32.488Z,97053.97
2023-03-29T14:44:00.148Z,97051.13
2023-03-29T14:46:27.364Z,97043.50
2023-03-29T14:48:54.827Z,97048.31
2023-03-29T14:51:23.252Z,97046.78
2023-03-29T14:53:49.892Z,97045.03
2023-03-29T14:56:18.120Z,97036.31
2023-03-29T14:58:46.553Z,97027.06
2023-03-29T15:01:17.570Z,97023.56
2023-03-29T15:03:49.782Z,97027.59
2023-03-29T15:06:16.915Z,97030.84
2023-03-29T15:08:57.701Z,97025.84
2023-03-29T15:11:29.643Z,97027.69
2023-03-29T15:14:15.812Z,97034.56
2023-03-29T15:16:45.470Z,97024.34
2023-03-29T15:19:20.343Z,97027.06
2023-03-29T15:21:50.766Z,97033.69
2023-03-29T15:24:27.444Z,97040.03
2023-03-29T15:27:11.313Z,97034.78
2023-03-29T15:29:46.286Z,97028.34
2023-03-29T15:32:24.934Z,97034.88
2023-03-29T15:34:59.447Z,97038.06
2023-03-29T15:37:26.209Z,97040.16
2023-03-29T15:39:52.631Z,97021.16
2023-03-29T15:42:19.117Z,97033.25
2023-03-29T15:44:45.859Z,97027.09
2023-03-29T15:47:13.297Z,97018.63
2023-03-29T15:49:39.906Z,97011.69
2023-03-29T15:52:06.305Z,97016.91
2023-03-29T15:54:33.681Z,97012.53
2023-03-29T15:57:07.127Z,97011.63
2023-03-29T15:59:34.788Z,97006.06
2023-03-29T16:02:01.225Z,97001.47
2023-03-29T16:04:27.606Z,97005.81
2023-03-29T16:06:55.703Z,97004.28
2023-03-29T16:09:22.748Z,97019.94
2023-03-29T16:11:49.823Z,97012.94
2023-03-29T16:14:27.836Z,97006.22
2023-03-29T16:16:58.182Z,97011.63
2023-03-29T16:19:25.674Z,97000.94
2023-03-29T16:21:53.086Z,97006.22
2023-03-29T16:24:25.024Z,96998.25
2023-03-29T16:26:55.696Z,97002.03
2023-03-29T16:29:22.906Z,96985.50
2023-03-29T16:31:50.401Z,96993.44
2023-03-29T16:34:18.654Z,96990.59
2023-03-29T16:36:46.524Z,96977.00
2023-03-29T16:39:13.619Z,96981.09
2023-03-29T16:41:41.319Z,96978.00
2023-03-29T16:44:07.820Z,96978.00
2023-03-29T16:46:34.605Z,96967.44
2023-03-29T16:49:01.506Z,96977.09
2023-03-29T16:51:27.858Z,96965.22
2023-03-29T16:53:54.373Z,96970.09
2023-03-29T16:56:20.703Z,96965.72
2023-03-29T16:58:47.447Z,96963.69
2023-03-29T17:01:15.932Z,96954.09
2023-03-29T17:03:43.141Z,96950.41
2023-03-29T17:06:11.056Z,96947.09
2023-03-29T17:08:38.593Z,96956.00
2023-03-29T17:11:06.796Z,96957.59
2023-03-29T17:13:33.381Z,96942.44
2023-03-29T17:16:00.131Z,96940.66
2023-03-29T17:18:27.666Z,96943.28
2023-03-29T17:20:58.416Z,96946.31
2023-03-29T17:23:25.439Z,96941.00
2023-03-29T17:25:53.969Z,96938.78
2023-03-29T17:28:20.502Z,96944.69
2023-03-29T17:30:46.870Z,96941.09
2023-03-29T17:33:13.604Z,96947.28
2023-03-29T17:35:46.460Z,96950.31
2023-03-29T17:38:12.824Z,96953.84
2023-03-29T17:40:39.233Z,96940.09
2023-03-29T17:43:05.658Z,96952.06
2023-03-29T17:45:32.241Z,96945.38
2023-03-29T17:47:58.623Z,96945.88
2023-03-29T17:50:25.604Z,96940.41
2023-03-29T17:52:51.944Z,96934.16
2023-03-29T17:55:18.675Z,96953.59
2023-03-29T17:57:45.110Z,96948.09
2023-03-29T18:00:13.680Z,96940.75
2023-03-29T18:02:41.403Z,96959.72
2023-03-29T18:05:09.386Z,96938.28
2023-03-29T18:07:36.728Z,96946.75
2023-03-29T18:10:03.892Z,96941.47
2023-03-29T18:12:30.349Z,96942.72
2023-03-29T18:14:56.958Z,96944.44
2023-03-29T18:17:24.452Z,96951.47
2023-03-29T18:19:51.416Z,96938.31
2023-03-29T18:22:18.541Z,96938.31
2023-03-29T18:24:44.980Z,96933.00
2023-03-29T18:27:12.190Z,96935.88
2023-03-29T18:29:39.018Z,96921.03
2023-03-29T18:32:06.018Z,96937.72
2023-03-29T18:34:33.347Z,96930.88
2023-03-29T18:36:59.677Z,96928.63
2023-03-29T18:39:27.218Z,96925.25
2023-03-29T18:41:53.683Z,96922.03
2023-03-29T18:44:21.795Z,96927.38
2023-03-29T18:46:48.317Z,96929.22
2023-03-29T18:49:14.680Z,96920.06
2023-03-29T18:51:42.077Z,96924.06
2023-03-29T18:54:08.946Z,96917.34
2023-03-29T18:56:35.870Z,96921.19
2023-03-29T18:59:06.037Z,96927.44
2023-03-29T19:01:33.158Z,96927.44
2023-03-29T19:03:59.593Z,96926.00
2023-03-29T19:06:26.378Z,96925.28
2023-03-29T19:08:53.982Z,96922.97
2023-03-29T19:11:20.374Z,96933.56
2023-03-29T19:13:50.078Z,96907.13
2023-03-29T19:16:17.194Z,96925.03
2023-03-29T19:18:43.642Z,96901.34
2023-03-29T19:21:10.045Z,96925.38
2023-03-29T19:23:36.544Z,96929.53
2023-03-29T19:26:05.475Z,96924.31
2023-03-29T19:28:33.428Z,96918.19
2023-03-29T19:31:01.360Z,96907.97
2023-03-29T19:33:29.095Z,96901.88
2023-03-29T19:35:55.616Z,96898.81
2023-03-29T19:38:22.352Z,96907.91
2023-03-29T19:40:50.741Z,96895.34
2023-03-29T19:43:17.964Z,96907.78
2023-03-29T19:45:45.515Z,96901.53
2023-03-29T19:48:21.142Z,96890.53
2023-03-29T19:50:48.527Z,96893.56
2023-03-29T19:53:14.962Z,96892.06
2023-03-29T19:55:42.815Z,96878.56
2023-03-29T19:58:09.389Z,96877.47
2023-03-29T20:00:36.027Z,96856.25
2023-03-29T20:03:03.022Z,96870.84
2023-03-29T20:05:29.417Z,96859.56
2023-03-29T20:07:56.082Z,96856.94
2023-03-29T20:10:22.525Z,96821.50
2023-03-29T20:12:49.224Z,96848.19
2023-03-29T20:15:15.724Z,96831.75
2023-03-29T20:17:42.184Z,96830.28
2023-03-29T20:20:10.196Z,96809.84
2023-03-29T20:22:38.078Z,96830.56
2023-03-29T20:25:05.278Z,96805.22
2023-03-29T20:27:31.668Z,96799.13
2023-03-29T20:29:58.031Z,96825.28
2023-03-29T20:32:24.378Z,96810.19
2023-03-29T20:34:50.887Z,96810.63
2023-03-29T20:37:17.232Z,96800.53
2023-03-29T20:39:43.658Z,96812.19
2023-03-29T20:42:10.134Z,96814.78
2023-03-29T20:44:36.591Z,96810.03
2023-03-29T20:47:07.899Z,96794.41
2023-03-29T20:49:39.112Z,96824.81
2023-03-29T20:52:07.967Z,96793.31
2023-03-29T20:54:36.945Z,96788.03
2023-03-29T20:57:04.708Z,96807.25
2023-03-29T20:59:31.284Z,96793.22
2023-03-29T21:01:58.199Z,96785.72
2023-03-29T21:04:24.790Z,96798.34
2023-03-29T21:06:51.331Z,96811.69
2023-03-29T21:09:19.189Z,96803.44
2023-03-29T21:11:45.630Z,96806.19
2023-03-29T21:14:11.979Z,96796.25
2023-03-29T21:16:41.601Z,96771.81
2023-03-29T21:19:09.366Z,96778.22
2023-03-29T21:21:35.966Z,96775.28
2023-03-29T21:24:03.545Z,96761.72
2023-03-29T21:26:30.078Z,96773.34
2023-03-29T21:28:56.521Z,96770.13
2023-03-29T21:31:22.999Z,96755.28
2023-03-29T21:33:49.526Z,96775.78
2023-03-29T21:36:16.116Z,96773.00
2023-03-29T21:38:42.521Z,96760.53
2023-03-29T21:41:10.643Z,96766.03
2023-03-29T21:43:36.988Z,96761.75
2023-03-29T21:46:03.671Z,96763.44
2023-03-29T21:48:30.832Z,96751.84
2023-03-29T21:50:57.374Z,96747.13
2023-03-29T21:53:24.728Z,96745.28
2023-03-29T21:55:51.742Z,96728.19
2023-03-29T21:58:18.802Z,96735.19
2023-03-29T22:00:46.661Z,96721.50
2023-03-29T22:03:14.909Z,96724.97
2023-03-29T22:05:41.875Z,96729.25
2023-03-29T22:08:10.519Z,96717.63
2023-03-29T22:10:41.114Z,96734.91
2023-03-29T22:13:08.668Z,96730.16
2023-03-29T22:15:35.567Z,96735.03
2023-03-29T22:18:03.120Z,96721.94
2023-03-29T22:20:29.570Z,96725.59
2023-03-29T22:22:55.929Z,96736.75
2023-03-29T22:25:23.167Z,96734.31
2023-03-29T22:27:49.874Z,96741.78
2023-03-29T22:30:17.249Z,96730.50
2023-03-29T22:32:43.706Z,96745.59
2023-03-29T22:35:10.550Z,96743.16
2023-03-29T22:37:41.871Z,96730.31
2023-03-29T22:40:10.292Z,96722.66
2023-03-29T22:42:36.862Z,96731.81
2023-03-29T22:45:03.909Z,96730.75
2023-03-29T22:47:30.317Z,96728.75
2023-03-29T22:49:56.663Z,96724.66
2023-03-29T22:52:23.017Z,96711.03
2023-03-29T22:54:49.362Z,96718.66
2023-03-29T22:57:15.761Z,96713.59
2023-03-29T22:59:42.217Z,96709.97
2023-03-29T23:02:08.571Z,96712.41
2023-03-29T23:04:36.498Z,96701.69
2023-03-29T23:07:02.929Z,96701.25
2023-03-29T23:09:29.265Z,96677.16
2023-03-29T23:11:55.671Z,96685.19
2023-03-29T23:14:22.675Z,96682.28
2023-03-29T23:16:50.373Z,96679.84
2023-03-29T23:19:16.708Z,96667.66
2023-03-29T23:21:43.105Z,96668.56
2023-03-29T23:24:09.493Z,96670.41
2023-03-29T23:26:37.509Z,96660.78
2023-03-29T23:29:04.041Z,96658.75
2023-03-29T23:31:30.522Z,96666.59
2023-03-29T23:33:56.916Z,96667.81
2023-03-29T23:36:23.372Z,96658.53
2023-03-29T23:38:49.996Z,96661.16
2023-03-29T23:41:17.654Z,96669.84
2023-03-29T23:43:46.917Z,96669.22
2023-03-29T23:46:15.781Z,96680.38
2023-03-29T23:48:47.076Z,96671.09
2023-03-29T23:51:13.528Z,96676.31
2023-03-29T23:53:40.300Z,96669.56
2023-03-29T23:56:07.683Z,96681.00
2023-03-29T23:58:36.827Z,96676.25
